KDHN/DHN METAR and TAF weather

Enter ICAO airport designator
Station Type Date Time Source
KDHN METAR 2018/01/19 16:53 UTC NOAA

KDHN 191653Z VRB03KT 10SM CLR 08/M10 A3041 RMK AO2 SLP298 T00831100 $


Station Type Date Time Source
KDHN Decoded METAR 2018/01/19 16:53 UTC NOAA

DOTHAN AIRPORT, AL, United States (KDHN) 31-19N 085-27W 113M
Jan 19, 2018 - 11:53 AM EST / 2018.01.19 1653 UTC
Wind: Variable at 3 MPH (3 KT):0
Visibility: 10 mile(s):0
Sky conditions: clear
Temperature: 46.9 F (8.3 C)
Dew Point: 14.0 F (-10.0 C)
Relative Humidity: 26%
Pressure (altimeter): 30.41 in. Hg (1029 hPa)
ob: KDHN 191653Z VRB03KT 10SM CLR 08/M10 A3041 RMK AO2 SLP298 T00831100
cycle: 17

Station Type Date Time Source
KDHN TAF 2018/01/19 12:27 UTC NOAA

TAF KDHN 191124Z 1912/2012 33004KT P6SM FEW150 SCT250


Example: see airport list